Thunder radar more information blitzortung!


Löydät sääaseman tiedot myös:

European Weather Network

Finland Weather Exchange

Weather Underground

AWEKAS



Weather Underground säähistoriasivu

Päivittäin yhteenveto Maaliskuu 16, 2017 Yksiköt:  Molemmat    Englantilaiset   Metriset
« Edellinen Päivä
Seuraava Päivä »
Päivittäin Viikoittain Kuukausittain Vuosittain Mukautettu
  Korkea: Matala: Keskiarvo:
Lämpötila: TemperatureC °F /  -17.8 °C 0.8 °F /  -17.3 °C 2.9 °F /  -16.2 °C
Kastepiste: DewpointC °F /  -17.8 °C -2.7 °F /  -19.3 °C -1.7 °F /  -18.7 °C
Kosteus: Humidity % 55 % 71 %
Tuulen nopeus: WindSpeedKMH mph /  0 km/h - 6.1 mph /  9.8 km/h
Tuulenpuuska: WindSpeedGustKMH mph /  0 km/h - -
Tuuli:- - WSW
Ilmanpaine: PressurehPa in /  0 hPa 995.8 in /  33717.8 hPa -
Sade: 0.0 in /  0 mm    
Historical Graphs
 
 
Taulukkotiedot Maaliskuu 16, 2017
Aika Lämpötila Kastepiste Ilmanpaine Tuuli Tuulen nopeus Tuulenpuuska Kosteus Sademäärä (tunneittain)
TemperatureC °F /  -17.8 °C DewpointC °F /  -17.8 °C PressurehPa in /  0 hPa Calm     Humidity % HourlyPrecipMM in /  0 mm
00:00 2.7 °F /  -16.3 °C -1.3 °F /  -18.5 °C 996.2 in /  33731.3 hPa West 3.2 mph /  5.1 km/h 12.9 mph /  20.8 km/h 75 % 0.0 in /  0 mm
00:15 2.7 °F /  -16.3 °C -1.3 °F /  -18.5 °C 996.2 in /  33731.3 hPa West 3.2 mph /  5.1 km/h 16.1 mph /  25.9 km/h 75 % 0.0 in /  0 mm
00:30 2.5 °F /  -16.4 °C -1.3 °F /  -18.5 °C 996.5 in /  33741.5 hPa West 1.6 mph /  2.6 km/h 11.3 mph /  18.2 km/h 76 % 0.0 in /  0 mm
00:45 2.3 °F /  -16.5 °C -1.3 °F /  -18.5 °C 996.5 in /  33741.5 hPa WSW 3.2 mph /  5.1 km/h 12.9 mph /  20.8 km/h 77 % 0.0 in /  0 mm
01:00 2.3 °F /  -16.5 °C -1.3 °F /  -18.5 °C 996.8 in /  33751.6 hPa West 3.2 mph /  5.1 km/h 14.5 mph /  23.3 km/h 77 % 0.0 in /  0 mm
01:15 2.3 °F /  -16.5 °C -1.3 °F /  -18.5 °C 996.8 in /  33751.6 hPa WSW 3.2 mph /  5.1 km/h 14.5 mph /  23.3 km/h 77 % 0.0 in /  0 mm
01:30 2.4 °F /  -16.4 °C -1.2 °F /  -18.4 °C 997.2 in /  33765.2 hPa WSW 3.2 mph /  5.1 km/h 17.7 mph /  28.5 km/h 77 % 0.0 in /  0 mm
01:45 2.4 °F /  -16.4 °C -1.2 °F /  -18.4 °C 997.2 in /  33765.2 hPa WSW 3.2 mph /  5.1 km/h 20.9 mph /  33.6 km/h 77 % 0.0 in /  0 mm
02:00 2.3 °F /  -16.5 °C -1.3 °F /  -18.5 °C 997.5 in /  33775.4 hPa West 3.2 mph /  5.1 km/h 11.3 mph /  18.2 km/h 77 % 0.0 in /  0 mm
02:15 2.3 °F /  -16.5 °C -1.3 °F /  -18.5 °C 997.5 in /  33775.4 hPa WSW 3.2 mph /  5.1 km/h 11.3 mph /  18.2 km/h 77 % 0.0 in /  0 mm
02:30 2.3 °F /  -16.5 °C -1.2 °F /  -18.4 °C 997.5 in /  33775.4 hPa WNW 4.8 mph /  7.7 km/h 20.9 mph /  33.6 km/h 78 % 0.0 in /  0 mm
02:45 2.1 °F /  -16.6 °C -1.2 °F /  -18.4 °C 997.5 in /  33775.4 hPa West 4.8 mph /  7.7 km/h 11.3 mph /  18.2 km/h 79 % 0.0 in /  0 mm
03:00 1.9 °F /  -16.7 °C -1.3 °F /  -18.5 °C 997.9 in /  33788.9 hPa West 3.2 mph /  5.1 km/h 14.5 mph /  23.3 km/h 79 % 0.0 in /  0 mm
03:15 1.8 °F /  -16.8 °C -1.3 °F /  -18.5 °C 998.2 in /  33799.1 hPa SW 3.2 mph /  5.1 km/h 9.7 mph /  15.6 km/h 80 % 0.0 in /  0 mm
03:30 1.7 °F /  -16.8 °C -1.2 °F /  -18.4 °C 998.2 in /  33799.1 hPa WSW 3.2 mph /  5.1 km/h 12.9 mph /  20.8 km/h 81 % 0.0 in /  0 mm
03:45 1.7 °F /  -16.8 °C -1.2 °F /  -18.4 °C 998.5 in /  33809.2 hPa WNW 3.2 mph /  5.1 km/h 14.5 mph /  23.3 km/h 81 % 0.0 in /  0 mm
04:00 1.7 °F /  -16.8 °C -1.2 °F /  -18.4 °C 998.9 in /  33822.8 hPa WNW 3.2 mph /  5.1 km/h 17.7 mph /  28.5 km/h 81 % 0.0 in /  0 mm
04:15 1.6 °F /  -16.9 °C -1.2 °F /  -18.4 °C 998.9 in /  33822.8 hPa West 4.8 mph /  7.7 km/h 12.9 mph /  20.8 km/h 82 % 0.0 in /  0 mm
04:30 1.6 °F /  -16.9 °C -1.2 °F /  -18.4 °C 998.9 in /  33822.8 hPa WNW 4.8 mph /  7.7 km/h 12.9 mph /  20.8 km/h 82 % 0.0 in /  0 mm
05:00 1.4 °F /  -17 °C -1.1 °F /  -18.4 °C 999.5 in /  33843.1 hPa West 6.4 mph /  10.3 km/h 14.5 mph /  23.3 km/h 83 % 0.0 in /  0 mm
05:15 1.3 °F /  -17.1 °C -1.2 °F /  -18.4 °C 999.5 in /  33843.1 hPa West 3.2 mph /  5.1 km/h 11.3 mph /  18.2 km/h 83 % 0.0 in /  0 mm
05:30 1.3 °F /  -17.1 °C -1.2 °F /  -18.4 °C 999.9 in /  33856.6 hPa West 6.4 mph /  10.3 km/h 17.7 mph /  28.5 km/h 83 % 0.0 in /  0 mm
05:45 1.3 °F /  -17.1 °C -1.3 °F /  -18.5 °C 999.9 in /  33856.6 hPa WNW 4.8 mph /  7.7 km/h 19.3 mph /  31.1 km/h 83 % 0.0 in /  0 mm
06:00 1.1 °F /  -17.2 °C -1.3 °F /  -18.5 °C 1000.2 in /  33866.8 hPa WNW 4.8 mph /  7.7 km/h 14.5 mph /  23.3 km/h 84 % 0.0 in /  0 mm
06:15 1.1 °F /  -17.2 °C -1.3 °F /  -18.5 °C 1000.2 in /  33866.8 hPa WNW 4.8 mph /  7.7 km/h 12.9 mph /  20.8 km/h 84 % 0.0 in /  0 mm
06:30 1.0 °F /  -17.2 °C -1.4 °F /  -18.6 °C 1000.6 in /  33880.3 hPa WNW 4.8 mph /  7.7 km/h 19.3 mph /  31.1 km/h 84 % 0.0 in /  0 mm
06:45 0.8 °F /  -17.3 °C -1.4 °F /  -18.6 °C 1000.9 in /  33890.5 hPa WNW 4.8 mph /  7.7 km/h 22.5 mph /  36.2 km/h 85 % 0.0 in /  0 mm
07:00 0.8 °F /  -17.3 °C -1.4 °F /  -18.6 °C 1000.9 in /  33890.5 hPa West 4.8 mph /  7.7 km/h 17.7 mph /  28.5 km/h 85 % 0.0 in /  0 mm
07:15 0.9 °F /  -17.3 °C -1.5 °F /  -18.6 °C 1001.2 in /  33900.6 hPa WNW 4.8 mph /  7.7 km/h 17.7 mph /  28.5 km/h 84 % 0.0 in /  0 mm
07:30 0.9 °F /  -17.3 °C -1.5 °F /  -18.6 °C 1001.6 in /  33914.2 hPa WNW 6.4 mph /  10.3 km/h 16.1 mph /  25.9 km/h 84 % 0.0 in /  0 mm
07:45 1.0 °F /  -17.2 °C -1.4 °F /  -18.6 °C 1001.9 in /  33924.3 hPa WNW 6.4 mph /  10.3 km/h 20.9 mph /  33.6 km/h 84 % 0.0 in /  0 mm
08:00 1.2 °F /  -17.1 °C -1.6 °F /  -18.7 °C 1001.9 in /  33924.3 hPa WNW 6.4 mph /  10.3 km/h 19.3 mph /  31.1 km/h 82 % 0.0 in /  0 mm
08:15 1.4 °F /  -17 °C -1.5 °F /  -18.6 °C 1001.9 in /  33924.3 hPa NW 9.7 mph /  15.6 km/h 20.9 mph /  33.6 km/h 81 % 0.0 in /  0 mm
08:30 1.6 °F /  -16.9 °C -1.5 °F /  -18.6 °C 1002.3 in /  33937.9 hPa WNW 8.0 mph /  12.9 km/h 20.9 mph /  33.6 km/h 80 % 0.0 in /  0 mm
08:45 1.9 °F /  -16.7 °C -1.5 °F /  -18.6 °C 1002.6 in /  33948 hPa NW 9.7 mph /  15.6 km/h 17.7 mph /  28.5 km/h 78 % 0.0 in /  0 mm
09:00 2.2 °F /  -16.6 °C -1.6 °F /  -18.7 °C 1002.6 in /  33948 hPa NW 9.7 mph /  15.6 km/h 20.9 mph /  33.6 km/h 76 % 0.0 in /  0 mm
09:15 2.4 °F /  -16.4 °C -1.5 °F /  -18.6 °C 1002.9 in /  33958.2 hPa NW 9.7 mph /  15.6 km/h 17.7 mph /  28.5 km/h 75 % 0.0 in /  0 mm
09:30 2.7 °F /  -16.3 °C -1.8 °F /  -18.8 °C 1003.3 in /  33971.7 hPa NW 9.7 mph /  15.6 km/h 25.7 mph /  41.4 km/h 72 % 0.0 in /  0 mm
09:45 3.0 °F /  -16.1 °C -1.7 °F /  -18.7 °C 1003.3 in /  33971.7 hPa NW 11.3 mph /  18.2 km/h 19.3 mph /  31.1 km/h 71 % 0.0 in /  0 mm
10:00 3.3 °F /  -15.9 °C -1.7 °F /  -18.7 °C 1003.6 in /  33981.9 hPa NW 9.7 mph /  15.6 km/h 22.5 mph /  36.2 km/h 70 % 0.0 in /  0 mm
10:15 3.6 °F /  -15.8 °C -1.8 °F /  -18.8 °C 1003.9 in /  33992.1 hPa NW 9.7 mph /  15.6 km/h 22.5 mph /  36.2 km/h 68 % 0.0 in /  0 mm
10:30 3.9 °F /  -15.6 °C -1.9 °F /  -18.8 °C 1003.9 in /  33992.1 hPa NW 9.7 mph /  15.6 km/h 25.7 mph /  41.4 km/h 66 % 0.0 in /  0 mm
10:45 4.2 °F /  -15.4 °C -1.8 °F /  -18.8 °C 1003.9 in /  33992.1 hPa NW 9.7 mph /  15.6 km/h 19.3 mph /  31.1 km/h 65 % 0.0 in /  0 mm
11:00 4.3 °F /  -15.4 °C -1.9 °F /  -18.8 °C 1004.3 in /  34005.6 hPa NW 9.7 mph /  15.6 km/h 17.7 mph /  28.5 km/h 64 % 0.0 in /  0 mm
11:15 4.4 °F /  -15.3 °C -2.2 °F /  -19 °C 1004.6 in /  34015.8 hPa NW 9.7 mph /  15.6 km/h 22.5 mph /  36.2 km/h 62 % 0.0 in /  0 mm
11:30 4.8 °F /  -15.1 °C -1.9 °F /  -18.8 °C 1004.6 in /  34015.8 hPa NW 6.4 mph /  10.3 km/h 14.5 mph /  23.3 km/h 62 % 0.0 in /  0 mm
11:45 4.9 °F /  -15.1 °C -2.0 °F /  -18.9 °C 1004.6 in /  34015.8 hPa WNW 4.8 mph /  7.7 km/h 12.9 mph /  20.8 km/h 61 % 0.0 in /  0 mm
12:15 5.1 °F /  -14.9 °C -2.0 °F /  -18.9 °C 1005.0 in /  34029.3 hPa WNW 6.4 mph /  10.3 km/h 14.5 mph /  23.3 km/h 60 % 0.0 in /  0 mm
12:30 5.3 °F /  -14.8 °C -1.8 °F /  -18.8 °C 1005.0 in /  34029.3 hPa SW 4.8 mph /  7.7 km/h 12.9 mph /  20.8 km/h 60 % 0.0 in /  0 mm
12:45 5.4 °F /  -14.8 °C -1.9 °F /  -18.8 °C 1005.0 in /  34029.3 hPa West 4.8 mph /  7.7 km/h 14.5 mph /  23.3 km/h 59 % 0.0 in /  0 mm
13:00 5.7 °F /  -14.6 °C -1.7 °F /  -18.7 °C 1005.0 in /  34029.3 hPa West 4.8 mph /  7.7 km/h 16.1 mph /  25.9 km/h 59 % 0.0 in /  0 mm
13:15 5.8 °F /  -14.6 °C -2.1 °F /  -18.9 °C 1004.6 in /  34015.8 hPa West 4.8 mph /  7.7 km/h 11.3 mph /  18.2 km/h 57 % 0.0 in /  0 mm
13:30 5.7 °F /  -14.6 °C -2.1 °F /  -18.9 °C 1004.6 in /  34015.8 hPa WNW 4.8 mph /  7.7 km/h 9.7 mph /  15.6 km/h 57 % 0.0 in /  0 mm
13:45 5.9 °F /  -14.5 °C -2.2 °F /  -19 °C 1005.0 in /  34029.3 hPa WNW 4.8 mph /  7.7 km/h 16.1 mph /  25.9 km/h 56 % 0.0 in /  0 mm
14:00 5.9 °F /  -14.5 °C -1.9 °F /  -18.8 °C 1005.0 in /  34029.3 hPa WNW 4.8 mph /  7.7 km/h 16.1 mph /  25.9 km/h 57 % 0.0 in /  0 mm
14:15 6.1 °F /  -14.4 °C -1.6 °F /  -18.7 °C 1005.0 in /  34029.3 hPa SW 4.8 mph /  7.7 km/h 12.9 mph /  20.8 km/h 58 % 0.0 in /  0 mm
14:30 6.1 °F /  -14.4 °C -2.1 °F /  -18.9 °C 1005.0 in /  34029.3 hPa SW 6.4 mph /  10.3 km/h 12.9 mph /  20.8 km/h 56 % 0.0 in /  0 mm
14:45 6.2 °F /  -14.3 °C -1.7 °F /  -18.7 °C 1004.6 in /  34015.8 hPa West 3.2 mph /  5.1 km/h 14.5 mph /  23.3 km/h 57 % 0.0 in /  0 mm
15:00 6.7 °F /  -14.1 °C -1.2 °F /  -18.4 °C 1005.0 in /  34029.3 hPa SW 1.6 mph /  2.6 km/h 9.7 mph /  15.6 km/h 57 % 0.0 in /  0 mm
15:15 6.2 °F /  -14.3 °C -2.2 °F /  -19 °C 1005.0 in /  34029.3 hPa SW 6.4 mph /  10.3 km/h 16.1 mph /  25.9 km/h 55 % 0.0 in /  0 mm
15:30 6.1 °F /  -14.4 °C -1.8 °F /  -18.8 °C 1005.0 in /  34029.3 hPa SW 4.8 mph /  7.7 km/h 12.9 mph /  20.8 km/h 57 % 0.0 in /  0 mm
15:45 5.8 °F /  -14.6 °C -1.6 °F /  -18.7 °C 1005.0 in /  34029.3 hPa SSW 6.4 mph /  10.3 km/h 17.7 mph /  28.5 km/h 59 % 0.0 in /  0 mm
16:00 5.4 °F /  -14.8 °C -1.7 °F /  -18.7 °C 1005.0 in /  34029.3 hPa SSW 6.4 mph /  10.3 km/h 17.7 mph /  28.5 km/h 60 % 0.0 in /  0 mm
16:15 5.2 °F /  -14.9 °C -2.2 °F /  -19 °C 1005.0 in /  34029.3 hPa SW 6.4 mph /  10.3 km/h 16.1 mph /  25.9 km/h 59 % 0.0 in /  0 mm
16:30 4.6 °F /  -15.2 °C -1.9 °F /  -18.8 °C 1004.6 in /  34015.8 hPa SSW 4.8 mph /  7.7 km/h 16.1 mph /  25.9 km/h 63 % 0.0 in /  0 mm
17:00 3.7 °F /  -15.7 °C -2.3 °F /  -19.1 °C 1004.6 in /  34015.8 hPa SSW 6.4 mph /  10.3 km/h 17.7 mph /  28.5 km/h 65 % 0.0 in /  0 mm
17:15 3.4 °F /  -15.9 °C -2.2 °F /  -19 °C 1004.6 in /  34015.8 hPa SSW 6.4 mph /  10.3 km/h 16.1 mph /  25.9 km/h 67 % 0.0 in /  0 mm
17:30 3.2 °F /  -16 °C -2.2 °F /  -19 °C 1004.6 in /  34015.8 hPa SSW 8.0 mph /  12.9 km/h 19.3 mph /  31.1 km/h 68 % 0.0 in /  0 mm
17:45 2.9 °F /  -16.2 °C -2.0 °F /  -18.9 °C 1004.3 in /  34005.6 hPa SSW 4.8 mph /  7.7 km/h 11.3 mph /  18.2 km/h 70 % 0.0 in /  0 mm
18:00 2.8 °F /  -16.2 °C -2.2 °F /  -19 °C 1004.3 in /  34005.6 hPa SSW 6.4 mph /  10.3 km/h 20.9 mph /  33.6 km/h 70 % 0.0 in /  0 mm
18:15 2.6 °F /  -16.3 °C -2.0 °F /  -18.9 °C 1003.9 in /  33992.1 hPa SSW 6.4 mph /  10.3 km/h 11.3 mph /  18.2 km/h 72 % 0.0 in /  0 mm
18:30 2.3 °F /  -16.5 °C -1.9 °F /  -18.8 °C 1003.6 in /  33981.9 hPa SSW 8.0 mph /  12.9 km/h 14.5 mph /  23.3 km/h 74 % 0.0 in /  0 mm
18:45 1.9 °F /  -16.7 °C -1.8 °F /  -18.8 °C 1003.6 in /  33981.9 hPa SSW 4.8 mph /  7.7 km/h 14.5 mph /  23.3 km/h 76 % 0.0 in /  0 mm
19:00 1.8 °F /  -16.8 °C -1.8 °F /  -18.8 °C 1003.6 in /  33981.9 hPa SSW 6.4 mph /  10.3 km/h 16.1 mph /  25.9 km/h 77 % 0.0 in /  0 mm
19:15 1.6 °F /  -16.9 °C -1.8 °F /  -18.8 °C 1003.3 in /  33971.7 hPa SSW 4.8 mph /  7.7 km/h 12.9 mph /  20.8 km/h 78 % 0.0 in /  0 mm
19:30 1.6 °F /  -16.9 °C -1.9 °F /  -18.8 °C 1002.6 in /  33948 hPa SSW 8.0 mph /  12.9 km/h 17.7 mph /  28.5 km/h 78 % 0.0 in /  0 mm
19:45 1.4 °F /  -17 °C -2.0 °F /  -18.9 °C 1002.3 in /  33937.9 hPa SSW 4.8 mph /  7.7 km/h 12.9 mph /  20.8 km/h 78 % 0.0 in /  0 mm
20:15 1.4 °F /  -17 °C -2.2 °F /  -19 °C 1001.6 in /  33914.2 hPa SSW 6.4 mph /  10.3 km/h 16.1 mph /  25.9 km/h 77 % 0.0 in /  0 mm
20:30 1.4 °F /  -17 °C -2.3 °F /  -19.1 °C 1001.2 in /  33900.6 hPa SSW 8.0 mph /  12.9 km/h 17.7 mph /  28.5 km/h 76 % 0.0 in /  0 mm
20:45 1.5 °F /  -16.9 °C -2.5 °F /  -19.2 °C 1000.9 in /  33890.5 hPa SSW 8.0 mph /  12.9 km/h 22.5 mph /  36.2 km/h 75 % 0.0 in /  0 mm
21:00 1.6 °F /  -16.9 °C -2.6 °F /  -19.2 °C 1000.6 in /  33880.3 hPa SSW 9.7 mph /  15.6 km/h 22.5 mph /  36.2 km/h 74 % 0.0 in /  0 mm
21:15 1.6 °F /  -16.9 °C -2.7 °F /  -19.3 °C 1000.2 in /  33866.8 hPa SSW 9.7 mph /  15.6 km/h 24.1 mph /  38.8 km/h 73 % 0.0 in /  0 mm
21:30 1.8 °F /  -16.8 °C -2.7 °F /  -19.3 °C 999.9 in /  33856.6 hPa SSW 9.7 mph /  15.6 km/h 24.1 mph /  38.8 km/h 72 % 0.0 in /  0 mm
21:45 2.0 °F /  -16.7 °C -2.5 °F /  -19.2 °C 999.2 in /  33832.9 hPa SSW 9.7 mph /  15.6 km/h 27.4 mph /  44.1 km/h 72 % 0.0 in /  0 mm
22:00 2.4 °F /  -16.4 °C -2.5 °F /  -19.2 °C 998.9 in /  33822.8 hPa SSW 11.3 mph /  18.2 km/h 25.7 mph /  41.4 km/h 70 % 0.0 in /  0 mm
22:15 2.5 °F /  -16.4 °C -2.4 °F /  -19.1 °C 998.5 in /  33809.2 hPa SSW 11.3 mph /  18.2 km/h 25.7 mph /  41.4 km/h 70 % 0.0 in /  0 mm
22:30 2.6 °F /  -16.3 °C -2.4 °F /  -19.1 °C 997.9 in /  33788.9 hPa SSW 8.0 mph /  12.9 km/h 22.5 mph /  36.2 km/h 70 % 0.0 in /  0 mm
22:45 2.7 °F /  -16.3 °C -2.3 °F /  -19.1 °C 997.5 in /  33775.4 hPa SSW 8.0 mph /  12.9 km/h 17.7 mph /  28.5 km/h 70 % 0.0 in /  0 mm
23:00 2.8 °F /  -16.2 °C -2.2 °F /  -19 °C 997.5 in /  33775.4 hPa SSW 8.0 mph /  12.9 km/h 14.5 mph /  23.3 km/h 70 % 0.0 in /  0 mm
23:15 2.9 °F /  -16.2 °C -2.2 °F /  -19 °C 996.8 in /  33751.6 hPa SSW 9.7 mph /  15.6 km/h 27.4 mph /  44.1 km/h 69 % 0.0 in /  0 mm
23:30 3.1 °F /  -16.1 °C -2.3 °F /  -19.1 °C 996.2 in /  33731.3 hPa South 6.4 mph /  10.3 km/h 17.7 mph /  28.5 km/h 68 % 0.0 in /  0 mm
23:45 3.2 °F /  -16 °C -2.1 °F /  -18.9 °C 995.8 in /  33717.8 hPa SSW 4.8 mph /  7.7 km/h 20.9 mph /  33.6 km/h 68 % 0.0 in /  0 mm
Esan sääasema
Terveisin Weather Underground - 2.75 mb

Alkuperäinen skripti  Jim McMurry - jmcmurry@mwt.net Sovitettu myös templatelle  Wim van der Kuil - Leuven-Template.eu

Laitteet joita käytämme:

Sääasema
Davis VP2

Sääasemaohjelma
Cumulus

Sääaseman tietokone
Asus EeePC

Palveluntarjoaja
Suncomet

Davis VP2

Cumulus

Asus EeePC

Suncomet